sensor_id;sensor_type;location;lat;lon;timestamp;temperature;humidity
44170;DHT22;29836;52.286;9.576;2023-05-07T00:01:36;9.20;99.90
44170;DHT22;29836;52.286;9.576;2023-05-07T00:04:01;9.20;99.90
44170;DHT22;29836;52.286;9.576;2023-05-07T00:06:27;9.20;99.90
44170;DHT22;29836;52.286;9.576;2023-05-07T00:08:54;9.20;99.90
44170;DHT22;29836;52.286;9.576;2023-05-07T00:11:19;9.20;99.90
44170;DHT22;29836;52.286;9.576;2023-05-07T00:13:45;9.10;99.90
44170;DHT22;29836;52.286;9.576;2023-05-07T00:16:11;9.10;99.90
44170;DHT22;29836;52.286;9.576;2023-05-07T00:18:36;9.10;99.90
44170;DHT22;29836;52.286;9.576;2023-05-07T00:21:02;9.10;99.90
44170;DHT22;29836;52.286;9.576;2023-05-07T00:23:27;9.10;99.90
44170;DHT22;29836;52.286;9.576;2023-05-07T00:25:53;9.10;99.90
44170;DHT22;29836;52.286;9.576;2023-05-07T00:28:18;9.10;99.90
44170;DHT22;29836;52.286;9.576;2023-05-07T00:30:44;9.10;99.90
44170;DHT22;29836;52.286;9.576;2023-05-07T00:33:09;9.00;99.90
44170;DHT22;29836;52.286;9.576;2023-05-07T00:35:35;9.00;99.90
44170;DHT22;29836;52.286;9.576;2023-05-07T00:38:01;9.00;99.90
44170;DHT22;29836;52.286;9.576;2023-05-07T00:40:26;9.00;99.90
44170;DHT22;29836;52.286;9.576;2023-05-07T00:42:51;9.00;99.90
44170;DHT22;29836;52.286;9.576;2023-05-07T00:45:18;9.00;99.90
44170;DHT22;29836;52.286;9.576;2023-05-07T00:47:43;9.00;99.90
44170;DHT22;29836;52.286;9.576;2023-05-07T00:50:09;9.00;99.90
44170;DHT22;29836;52.286;9.576;2023-05-07T00:52:36;9.00;99.90
44170;DHT22;29836;52.286;9.576;2023-05-07T00:55:05;9.00;99.90
44170;DHT22;29836;52.286;9.576;2023-05-07T00:57:35;9.00;99.90
44170;DHT22;29836;52.286;9.576;2023-05-07T01:00:03;9.00;99.90
44170;DHT22;29836;52.286;9.576;2023-05-07T01:02:29;9.00;99.90
44170;DHT22;29836;52.286;9.576;2023-05-07T01:04:55;9.00;99.90
44170;DHT22;29836;52.286;9.576;2023-05-07T01:07:21;8.90;99.90
44170;DHT22;29836;52.286;9.576;2023-05-07T01:09:47;9.00;99.90
44170;DHT22;29836;52.286;9.576;2023-05-07T01:12:13;9.00;99.90
44170;DHT22;29836;52.286;9.576;2023-05-07T01:14:39;9.00;99.90
44170;DHT22;29836;52.286;9.576;2023-05-07T01:17:04;9.00;99.90
44170;DHT22;29836;52.286;9.576;2023-05-07T01:19:30;8.90;99.90
44170;DHT22;29836;52.286;9.576;2023-05-07T01:22:02;9.00;99.90
44170;DHT22;29836;52.286;9.576;2023-05-07T01:24:31;8.90;99.90
44170;DHT22;29836;52.286;9.576;2023-05-07T01:26:56;8.90;99.90
44170;DHT22;29836;52.286;9.576;2023-05-07T01:29:22;8.90;99.90
44170;DHT22;29836;52.286;9.576;2023-05-07T01:31:47;8.90;99.90
44170;DHT22;29836;52.286;9.576;2023-05-07T01:34:15;8.90;99.90
44170;DHT22;29836;52.286;9.576;2023-05-07T01:36:43;8.80;99.90
44170;DHT22;29836;52.286;9.576;2023-05-07T01:39:09;8.80;99.90
44170;DHT22;29836;52.286;9.576;2023-05-07T01:41:35;8.90;99.90
44170;DHT22;29836;52.286;9.576;2023-05-07T01:44:01;8.90;99.90
44170;DHT22;29836;52.286;9.576;2023-05-07T01:46:28;8.80;99.90
44170;DHT22;29836;52.286;9.576;2023-05-07T01:48:55;8.80;99.90
44170;DHT22;29836;52.286;9.576;2023-05-07T01:51:21;8.80;99.90
44170;DHT22;29836;52.286;9.576;2023-05-07T01:53:48;8.80;99.90
44170;DHT22;29836;52.286;9.576;2023-05-07T01:56:19;8.80;99.90
44170;DHT22;29836;52.286;9.576;2023-05-07T01:58:45;8.80;99.90
44170;DHT22;29836;52.286;9.576;2023-05-07T02:01:14;8.80;99.90
44170;DHT22;29836;52.286;9.576;2023-05-07T02:03:39;8.80;99.90
44170;DHT22;29836;52.286;9.576;2023-05-07T02:06:05;8.80;99.90
44170;DHT22;29836;52.286;9.576;2023-05-07T02:08:30;8.80;99.90
44170;DHT22;29836;52.286;9.576;2023-05-07T02:10:56;8.80;99.90
44170;DHT22;29836;52.286;9.576;2023-05-07T02:13:21;8.80;99.90
44170;DHT22;29836;52.286;9.576;2023-05-07T02:15:50;8.80;99.90
44170;DHT22;29836;52.286;9.576;2023-05-07T02:18:16;8.80;99.90
44170;DHT22;29836;52.286;9.576;2023-05-07T02:20:42;8.80;99.90
44170;DHT22;29836;52.286;9.576;2023-05-07T02:23:08;8.80;99.90
44170;DHT22;29836;52.286;9.576;2023-05-07T02:25:33;8.80;99.90
44170;DHT22;29836;52.286;9.576;2023-05-07T02:27:59;8.80;99.90
44170;DHT22;29836;52.286;9.576;2023-05-07T02:30:24;8.80;99.90
44170;DHT22;29836;52.286;9.576;2023-05-07T02:32:50;8.80;99.90
44170;DHT22;29836;52.286;9.576;2023-05-07T02:35:16;8.70;99.90
44170;DHT22;29836;52.286;9.576;2023-05-07T02:37:41;8.80;99.90
44170;DHT22;29836;52.286;9.576;2023-05-07T02:40:07;8.80;99.90
44170;DHT22;29836;52.286;9.576;2023-05-07T02:42:33;8.80;99.90
44170;DHT22;29836;52.286;9.576;2023-05-07T02:44:58;8.80;99.90
44170;DHT22;29836;52.286;9.576;2023-05-07T02:47:24;8.80;99.90
44170;DHT22;29836;52.286;9.576;2023-05-07T02:49:52;8.80;99.90
44170;DHT22;29836;52.286;9.576;2023-05-07T02:52:18;8.80;99.90
44170;DHT22;29836;52.286;9.576;2023-05-07T02:54:43;8.80;99.90
44170;DHT22;29836;52.286;9.576;2023-05-07T02:57:09;8.80;99.90
44170;DHT22;29836;52.286;9.576;2023-05-07T02:59:34;8.80;99.90
44170;DHT22;29836;52.286;9.576;2023-05-07T03:02:00;8.80;99.90
44170;DHT22;29836;52.286;9.576;2023-05-07T03:04:26;8.80;99.90
44170;DHT22;29836;52.286;9.576;2023-05-07T03:06:51;8.80;99.90
44170;DHT22;29836;52.286;9.576;2023-05-07T03:09:17;8.80;99.90
44170;DHT22;29836;52.286;9.576;2023-05-07T03:11:42;8.80;99.90
44170;DHT22;29836;52.286;9.576;2023-05-07T03:14:08;8.80;99.90
44170;DHT22;29836;52.286;9.576;2023-05-07T03:16:33;8.80;99.90
44170;DHT22;29836;52.286;9.576;2023-05-07T03:18:59;8.80;99.90
44170;DHT22;29836;52.286;9.576;2023-05-07T03:21:24;8.80;99.90
44170;DHT22;29836;52.286;9.576;2023-05-07T03:23:51;8.80;99.90
44170;DHT22;29836;52.286;9.576;2023-05-07T03:26:17;8.80;99.90
44170;DHT22;29836;52.286;9.576;2023-05-07T03:28:42;8.80;99.90
44170;DHT22;29836;52.286;9.576;2023-05-07T03:31:08;8.80;99.90
44170;DHT22;29836;52.286;9.576;2023-05-07T03:33:34;8.80;99.90
44170;DHT22;29836;52.286;9.576;2023-05-07T03:36:00;8.80;99.90
44170;DHT22;29836;52.286;9.576;2023-05-07T03:38:26;8.80;99.90
44170;DHT22;29836;52.286;9.576;2023-05-07T03:40:51;8.70;99.90
44170;DHT22;29836;52.286;9.576;2023-05-07T03:43:17;8.70;99.90
44170;DHT22;29836;52.286;9.576;2023-05-07T03:45:42;8.70;99.90
44170;DHT22;29836;52.286;9.576;2023-05-07T03:48:08;8.70;99.90
44170;DHT22;29836;52.286;9.576;2023-05-07T03:50:33;8.70;99.90
44170;DHT22;29836;52.286;9.576;2023-05-07T03:52:59;8.70;99.90
44170;DHT22;29836;52.286;9.576;2023-05-07T03:55:24;8.80;99.90
44170;DHT22;29836;52.286;9.576;2023-05-07T03:57:50;8.70;99.90
44170;DHT22;29836;52.286;9.576;2023-05-07T04:00:16;8.70;99.90
44170;DHT22;29836;52.286;9.576;2023-05-07T04:02:41;8.70;99.90
44170;DHT22;29836;52.286;9.576;2023-05-07T04:05:07;8.70;99.90
44170;DHT22;29836;52.286;9.576;2023-05-07T04:07:33;8.70;99.90
44170;DHT22;29836;52.286;9.576;2023-05-07T04:09:58;8.70;99.90
44170;DHT22;29836;52.286;9.576;2023-05-07T04:12:24;8.60;99.90
44170;DHT22;29836;52.286;9.576;2023-05-07T04:14:49;8.70;99.90
44170;DHT22;29836;52.286;9.576;2023-05-07T04:17:15;8.70;99.90
44170;DHT22;29836;52.286;9.576;2023-05-07T04:19:40;8.70;99.90
44170;DHT22;29836;52.286;9.576;2023-05-07T04:22:10;8.70;99.90
44170;DHT22;29836;52.286;9.576;2023-05-07T04:24:36;8.60;99.90
44170;DHT22;29836;52.286;9.576;2023-05-07T04:27:01;8.60;99.90
44170;DHT22;29836;52.286;9.576;2023-05-07T04:29:27;8.70;99.90
44170;DHT22;29836;52.286;9.576;2023-05-07T04:31:53;8.60;99.90
44170;DHT22;29836;52.286;9.576;2023-05-07T04:34:21;8.60;99.90
44170;DHT22;29836;52.286;9.576;2023-05-07T04:36:47;8.60;99.90
44170;DHT22;29836;52.286;9.576;2023-05-07T04:39:13;8.60;99.90
44170;DHT22;29836;52.286;9.576;2023-05-07T04:41:39;8.60;99.90
44170;DHT22;29836;52.286;9.576;2023-05-07T04:44:04;8.70;99.90
44170;DHT22;29836;52.286;9.576;2023-05-07T04:46:30;8.60;99.90
44170;DHT22;29836;52.286;9.576;2023-05-07T04:48:55;8.70;99.90
44170;DHT22;29836;52.286;9.576;2023-05-07T04:51:21;8.70;99.90
44170;DHT22;29836;52.286;9.576;2023-05-07T04:53:46;8.60;99.90
44170;DHT22;29836;52.286;9.576;2023-05-07T04:56:12;8.70;99.90
44170;DHT22;29836;52.286;9.576;2023-05-07T04:58:37;8.70;99.90
44170;DHT22;29836;52.286;9.576;2023-05-07T05:01:03;8.60;99.90
44170;DHT22;29836;52.286;9.576;2023-05-07T05:03:29;8.60;99.90
44170;DHT22;29836;52.286;9.576;2023-05-07T05:05:55;8.70;99.90
44170;DHT22;29836;52.286;9.576;2023-05-07T05:08:20;8.60;99.90
44170;DHT22;29836;52.286;9.576;2023-05-07T05:10:46;8.60;99.90
44170;DHT22;29836;52.286;9.576;2023-05-07T05:13:13;8.70;99.90
44170;DHT22;29836;52.286;9.576;2023-05-07T05:15:39;8.70;99.90
44170;DHT22;29836;52.286;9.576;2023-05-07T05:18:04;8.60;99.90
44170;DHT22;29836;52.286;9.576;2023-05-07T05:20:30;8.60;99.90
44170;DHT22;29836;52.286;9.576;2023-05-07T05:22:56;8.70;99.90
44170;DHT22;29836;52.286;9.576;2023-05-07T05:25:21;8.70;99.90
44170;DHT22;29836;52.286;9.576;2023-05-07T05:27:47;8.70;99.90
44170;DHT22;29836;52.286;9.576;2023-05-07T05:30:12;8.70;99.90
44170;DHT22;29836;52.286;9.576;2023-05-07T05:32:38;8.70;99.90
44170;DHT22;29836;52.286;9.576;2023-05-07T05:35:04;8.70;99.90
44170;DHT22;29836;52.286;9.576;2023-05-07T05:37:29;8.80;99.90
44170;DHT22;29836;52.286;9.576;2023-05-07T05:39:56;8.80;99.90
44170;DHT22;29836;52.286;9.576;2023-05-07T05:42:22;8.80;99.90
44170;DHT22;29836;52.286;9.576;2023-05-07T05:44:48;8.80;99.90
44170;DHT22;29836;52.286;9.576;2023-05-07T05:47:13;8.80;99.90
44170;DHT22;29836;52.286;9.576;2023-05-07T05:49:39;8.80;99.90
44170;DHT22;29836;52.286;9.576;2023-05-07T05:52:04;8.80;99.90
44170;DHT22;29836;52.286;9.576;2023-05-07T05:54:30;8.90;99.90
44170;DHT22;29836;52.286;9.576;2023-05-07T05:56:55;8.80;99.90
44170;DHT22;29836;52.286;9.576;2023-05-07T05:59:22;8.90;99.90
44170;DHT22;29836;52.286;9.576;2023-05-07T06:01:48;8.90;99.90
44170;DHT22;29836;52.286;9.576;2023-05-07T06:04:13;8.90;99.90
44170;DHT22;29836;52.286;9.576;2023-05-07T06:06:39;8.90;99.90
44170;DHT22;29836;52.286;9.576;2023-05-07T06:09:05;8.90;99.90
44170;DHT22;29836;52.286;9.576;2023-05-07T06:11:31;8.90;99.90
44170;DHT22;29836;52.286;9.576;2023-05-07T06:13:57;8.90;99.90
44170;DHT22;29836;52.286;9.576;2023-05-07T06:16:22;9.00;99.90
44170;DHT22;29836;52.286;9.576;2023-05-07T06:18:48;9.00;99.90
44170;DHT22;29836;52.286;9.576;2023-05-07T06:21:13;9.00;99.90
44170;DHT22;29836;52.286;9.576;2023-05-07T06:23:40;9.00;99.90
44170;DHT22;29836;52.286;9.576;2023-05-07T06:26:06;9.10;99.90
44170;DHT22;29836;52.286;9.576;2023-05-07T06:28:32;9.10;99.90
44170;DHT22;29836;52.286;9.576;2023-05-07T06:31:17;9.10;99.90
44170;DHT22;29836;52.286;9.576;2023-05-07T06:33:45;9.20;99.90
44170;DHT22;29836;52.286;9.576;2023-05-07T06:36:11;9.20;99.90
44170;DHT22;29836;52.286;9.576;2023-05-07T06:38:36;9.30;99.90
44170;DHT22;29836;52.286;9.576;2023-05-07T06:41:02;9.30;99.90
44170;DHT22;29836;52.286;9.576;2023-05-07T06:43:27;9.40;99.90
44170;DHT22;29836;52.286;9.576;2023-05-07T06:45:53;9.40;99.90
44170;DHT22;29836;52.286;9.576;2023-05-07T06:48:18;9.70;99.90
44170;DHT22;29836;52.286;9.576;2023-05-07T06:50:44;9.80;99.90
44170;DHT22;29836;52.286;9.576;2023-05-07T06:53:09;9.80;99.90
44170;DHT22;29836;52.286;9.576;2023-05-07T06:55:35;9.90;99.90
44170;DHT22;29836;52.286;9.576;2023-05-07T06:58:00;9.80;99.90
44170;DHT22;29836;52.286;9.576;2023-05-07T07:00:27;9.80;99.90
44170;DHT22;29836;52.286;9.576;2023-05-07T07:02:54;9.80;99.90
44170;DHT22;29836;52.286;9.576;2023-05-07T07:05:20;9.90;99.90
44170;DHT22;29836;52.286;9.576;2023-05-07T07:07:45;9.90;99.90
44170;DHT22;29836;52.286;9.576;2023-05-07T07:10:18;9.80;99.90
44170;DHT22;29836;52.286;9.576;2023-05-07T07:12:44;9.80;99.90
44170;DHT22;29836;52.286;9.576;2023-05-07T07:15:10;9.80;99.90
44170;DHT22;29836;52.286;9.576;2023-05-07T07:17:35;9.90;99.90
44170;DHT22;29836;52.286;9.576;2023-05-07T07:20:01;10.00;99.90
44170;DHT22;29836;52.286;9.576;2023-05-07T07:22:26;10.00;99.90
44170;DHT22;29836;52.286;9.576;2023-05-07T07:24:52;9.90;99.90
44170;DHT22;29836;52.286;9.576;2023-05-07T07:27:17;10.00;99.90
44170;DHT22;29836;52.286;9.576;2023-05-07T07:29:43;10.10;99.90
44170;DHT22;29836;52.286;9.576;2023-05-07T07:32:08;10.10;99.90
44170;DHT22;29836;52.286;9.576;2023-05-07T07:34:34;10.20;99.90
44170;DHT22;29836;52.286;9.576;2023-05-07T07:36:59;10.40;99.90
44170;DHT22;29836;52.286;9.576;2023-05-07T07:39:30;10.60;99.90
44170;DHT22;29836;52.286;9.576;2023-05-07T07:41:56;10.60;99.90
44170;DHT22;29836;52.286;9.576;2023-05-07T07:44:22;10.60;99.90
44170;DHT22;29836;52.286;9.576;2023-05-07T07:46:47;10.60;99.90
44170;DHT22;29836;52.286;9.576;2023-05-07T07:49:13;10.50;99.90
44170;DHT22;29836;52.286;9.576;2023-05-07T07:51:38;10.40;99.90
44170;DHT22;29836;52.286;9.576;2023-05-07T07:54:04;10.30;99.90
44170;DHT22;29836;52.286;9.576;2023-05-07T07:56:29;10.30;99.90
44170;DHT22;29836;52.286;9.576;2023-05-07T07:58:55;10.20;99.90
44170;DHT22;29836;52.286;9.576;2023-05-07T08:01:20;10.20;99.90
44170;DHT22;29836;52.286;9.576;2023-05-07T08:03:46;10.10;99.90
44170;DHT22;29836;52.286;9.576;2023-05-07T08:06:11;10.10;99.90
44170;DHT22;29836;52.286;9.576;2023-05-07T08:08:37;10.10;99.90
44170;DHT22;29836;52.286;9.576;2023-05-07T08:11:02;10.10;99.90
44170;DHT22;29836;52.286;9.576;2023-05-07T08:13:28;10.10;99.90
44170;DHT22;29836;52.286;9.576;2023-05-07T08:15:53;10.10;99.90
44170;DHT22;29836;52.286;9.576;2023-05-07T08:18:19;10.20;99.90
44170;DHT22;29836;52.286;9.576;2023-05-07T08:20:45;10.20;99.90
44170;DHT22;29836;52.286;9.576;2023-05-07T08:23:10;10.10;99.90
44170;DHT22;29836;52.286;9.576;2023-05-07T08:25:36;10.20;99.90
44170;DHT22;29836;52.286;9.576;2023-05-07T08:28:02;10.30;99.90
44170;DHT22;29836;52.286;9.576;2023-05-07T08:30:28;10.30;99.90
44170;DHT22;29836;52.286;9.576;2023-05-07T08:32:54;10.40;99.90
44170;DHT22;29836;52.286;9.576;2023-05-07T08:35:19;10.40;99.90
44170;DHT22;29836;52.286;9.576;2023-05-07T08:37:45;10.40;99.90
44170;DHT22;29836;52.286;9.576;2023-05-07T08:40:11;10.50;99.90
44170;DHT22;29836;52.286;9.576;2023-05-07T08:42:36;10.50;99.90
44170;DHT22;29836;52.286;9.576;2023-05-07T08:45:04;10.50;99.90
44170;DHT22;29836;52.286;9.576;2023-05-07T08:47:35;10.40;99.90
44170;DHT22;29836;52.286;9.576;2023-05-07T08:50:05;10.30;99.90
44170;DHT22;29836;52.286;9.576;2023-05-07T08:52:31;10.30;99.90
44170;DHT22;29836;52.286;9.576;2023-05-07T08:54:57;10.30;99.90
44170;DHT22;29836;52.286;9.576;2023-05-07T08:57:24;10.30;99.90
44170;DHT22;29836;52.286;9.576;2023-05-07T08:59:49;10.30;99.90
44170;DHT22;29836;52.286;9.576;2023-05-07T09:02:15;10.30;99.90
44170;DHT22;29836;52.286;9.576;2023-05-07T09:04:41;10.40;99.90
44170;DHT22;29836;52.286;9.576;2023-05-07T09:07:07;10.40;99.90
44170;DHT22;29836;52.286;9.576;2023-05-07T09:09:33;10.50;99.90
44170;DHT22;29836;52.286;9.576;2023-05-07T09:11:59;10.50;99.90
44170;DHT22;29836;52.286;9.576;2023-05-07T09:14:25;10.60;99.90
44170;DHT22;29836;52.286;9.576;2023-05-07T09:16:52;10.60;99.90
44170;DHT22;29836;52.286;9.576;2023-05-07T09:19:25;10.60;99.90
44170;DHT22;29836;52.286;9.576;2023-05-07T09:21:58;10.50;99.90
44170;DHT22;29836;52.286;9.576;2023-05-07T09:24:25;10.60;99.90
44170;DHT22;29836;52.286;9.576;2023-05-07T09:26:50;10.60;99.90
44170;DHT22;29836;52.286;9.576;2023-05-07T09:29:16;10.70;99.90
44170;DHT22;29836;52.286;9.576;2023-05-07T09:31:42;10.90;99.90
44170;DHT22;29836;52.286;9.576;2023-05-07T09:34:08;11.00;99.90
44170;DHT22;29836;52.286;9.576;2023-05-07T09:36:33;11.00;99.90
44170;DHT22;29836;52.286;9.576;2023-05-07T09:39:00;11.20;99.90
44170;DHT22;29836;52.286;9.576;2023-05-07T09:41:26;11.10;99.90
44170;DHT22;29836;52.286;9.576;2023-05-07T09:43:55;11.20;99.90
44170;DHT22;29836;52.286;9.576;2023-05-07T09:46:25;11.20;99.90
44170;DHT22;29836;52.286;9.576;2023-05-07T09:48:52;11.20;99.90
44170;DHT22;29836;52.286;9.576;2023-05-07T09:51:34;11.30;99.90
44170;DHT22;29836;52.286;9.576;2023-05-07T09:54:04;11.30;99.90
44170;DHT22;29836;52.286;9.576;2023-05-07T09:56:30;11.30;99.90
44170;DHT22;29836;52.286;9.576;2023-05-07T09:58:59;11.40;99.90
44170;DHT22;29836;52.286;9.576;2023-05-07T10:01:25;11.40;99.90
44170;DHT22;29836;52.286;9.576;2023-05-07T10:03:52;11.50;99.90
44170;DHT22;29836;52.286;9.576;2023-05-07T10:06:20;11.70;99.90
44170;DHT22;29836;52.286;9.576;2023-05-07T10:08:46;11.70;99.90
44170;DHT22;29836;52.286;9.576;2023-05-07T10:11:12;11.90;99.90
44170;DHT22;29836;52.286;9.576;2023-05-07T10:13:37;11.90;99.90
44170;DHT22;29836;52.286;9.576;2023-05-07T10:16:04;11.90;99.90
44170;DHT22;29836;52.286;9.576;2023-05-07T10:18:31;11.90;99.90
44170;DHT22;29836;52.286;9.576;2023-05-07T10:21:04;11.90;99.90
44170;DHT22;29836;52.286;9.576;2023-05-07T10:23:32;12.00;99.90
44170;DHT22;29836;52.286;9.576;2023-05-07T10:26:01;12.00;99.90
44170;DHT22;29836;52.286;9.576;2023-05-07T10:28:28;11.90;99.90
44170;DHT22;29836;52.286;9.576;2023-05-07T10:33:29;11.90;99.90
44170;DHT22;29836;52.286;9.576;2023-05-07T10:36:00;12.00;99.90
44170;DHT22;29836;52.286;9.576;2023-05-07T10:38:27;12.00;99.90
44170;DHT22;29836;52.286;9.576;2023-05-07T10:40:53;11.80;99.90
44170;DHT22;29836;52.286;9.576;2023-05-07T10:43:19;11.90;99.90
44170;DHT22;29836;52.286;9.576;2023-05-07T10:46:15;11.90;99.90
44170;DHT22;29836;52.286;9.576;2023-05-07T10:51:29;12.00;99.90
44170;DHT22;29836;52.286;9.576;2023-05-07T10:56:37;11.80;99.90
44170;DHT22;29836;52.286;9.576;2023-05-07T11:04:21;11.60;99.90
44170;DHT22;29836;52.286;9.576;2023-05-07T11:07:21;11.70;99.90
44170;DHT22;29836;52.286;9.576;2023-05-07T11:15:11;12.00;99.90
44170;DHT22;29836;52.286;9.576;2023-05-07T11:17:57;12.00;99.90
44170;DHT22;29836;52.286;9.576;2023-05-07T11:20:51;11.90;99.90
44170;DHT22;29836;52.286;9.576;2023-05-07T11:26:07;12.20;99.90
44170;DHT22;29836;52.286;9.576;2023-05-07T11:28:41;12.40;99.90
44170;DHT22;29836;52.286;9.576;2023-05-07T11:31:07;12.30;99.90
44170;DHT22;29836;52.286;9.576;2023-05-07T11:33:33;12.20;99.90
44170;DHT22;29836;52.286;9.576;2023-05-07T11:36:03;12.20;99.90
44170;DHT22;29836;52.286;9.576;2023-05-07T11:38:30;12.30;99.90
44170;DHT22;29836;52.286;9.576;2023-05-07T11:40:59;12.10;99.90
44170;DHT22;29836;52.286;9.576;2023-05-07T11:43:26;12.10;99.90
44170;DHT22;29836;52.286;9.576;2023-05-07T11:45:52;12.20;99.90
44170;DHT22;29836;52.286;9.576;2023-05-07T11:48:17;12.30;99.90
44170;DHT22;29836;52.286;9.576;2023-05-07T11:51:12;12.30;99.90
44170;DHT22;29836;52.286;9.576;2023-05-07T11:53:40;12.40;99.90
44170;DHT22;29836;52.286;9.576;2023-05-07T11:56:10;12.30;99.90
44170;DHT22;29836;52.286;9.576;2023-05-07T11:58:37;12.40;99.90
44170;DHT22;29836;52.286;9.576;2023-05-07T12:01:03;12.50;99.90
44170;DHT22;29836;52.286;9.576;2023-05-07T12:03:29;12.50;99.90
44170;DHT22;29836;52.286;9.576;2023-05-07T12:05:54;12.70;99.90
44170;DHT22;29836;52.286;9.576;2023-05-07T12:08:21;12.80;99.90
44170;DHT22;29836;52.286;9.576;2023-05-07T12:10:50;12.70;99.90
44170;DHT22;29836;52.286;9.576;2023-05-07T12:13:23;12.60;99.90
44170;DHT22;29836;52.286;9.576;2023-05-07T12:15:52;12.70;99.90
44170;DHT22;29836;52.286;9.576;2023-05-07T12:18:18;12.60;99.90
44170;DHT22;29836;52.286;9.576;2023-05-07T12:20:44;12.80;99.90
44170;DHT22;29836;52.286;9.576;2023-05-07T12:23:10;12.80;99.90
44170;DHT22;29836;52.286;9.576;2023-05-07T12:25:40;12.80;99.90
44170;DHT22;29836;52.286;9.576;2023-05-07T12:28:08;13.00;99.90
44170;DHT22;29836;52.286;9.576;2023-05-07T12:30:38;13.00;99.90
44170;DHT22;29836;52.286;9.576;2023-05-07T12:33:04;13.00;99.90
44170;DHT22;29836;52.286;9.576;2023-05-07T12:35:31;13.10;99.90
44170;DHT22;29836;52.286;9.576;2023-05-07T12:37:58;13.30;99.90
44170;DHT22;29836;52.286;9.576;2023-05-07T12:40:41;13.10;99.90
44170;DHT22;29836;52.286;9.576;2023-05-07T12:43:07;13.20;99.90
44170;DHT22;29836;52.286;9.576;2023-05-07T12:45:37;13.40;99.90
44170;DHT22;29836;52.286;9.576;2023-05-07T12:48:04;13.40;99.90
44170;DHT22;29836;52.286;9.576;2023-05-07T12:50:33;13.60;99.90
44170;DHT22;29836;52.286;9.576;2023-05-07T12:52:59;13.90;99.90
44170;DHT22;29836;52.286;9.576;2023-05-07T12:55:25;14.00;99.90
44170;DHT22;29836;52.286;9.576;2023-05-07T12:57:52;13.80;99.90
44170;DHT22;29836;52.286;9.576;2023-05-07T13:00:35;13.70;99.90
44170;DHT22;29836;52.286;9.576;2023-05-07T13:03:01;13.70;99.90
44170;DHT22;29836;52.286;9.576;2023-05-07T13:05:27;13.70;99.90
44170;DHT22;29836;52.286;9.576;2023-05-07T13:07:56;13.80;99.90
44170;DHT22;29836;52.286;9.576;2023-05-07T13:10:22;13.70;99.90
44170;DHT22;29836;52.286;9.576;2023-05-07T13:12:49;13.90;99.90
44170;DHT22;29836;52.286;9.576;2023-05-07T13:15:14;13.80;99.90
44170;DHT22;29836;52.286;9.576;2023-05-07T13:17:40;13.90;99.90
44170;DHT22;29836;52.286;9.576;2023-05-07T13:20:06;13.90;99.90
44170;DHT22;29836;52.286;9.576;2023-05-07T13:22:33;13.80;99.90
44170;DHT22;29836;52.286;9.576;2023-05-07T13:24:58;13.40;99.90
44170;DHT22;29836;52.286;9.576;2023-05-07T13:27:24;13.30;99.90
44170;DHT22;29836;52.286;9.576;2023-05-07T13:29:49;13.30;99.90
44170;DHT22;29836;52.286;9.576;2023-05-07T13:32:15;13.40;99.90
44170;DHT22;29836;52.286;9.576;2023-05-07T13:34:40;13.40;99.90
44170;DHT22;29836;52.286;9.576;2023-05-07T13:37:06;13.30;99.90
44170;DHT22;29836;52.286;9.576;2023-05-07T13:39:33;13.20;99.90
44170;DHT22;29836;52.286;9.576;2023-05-07T13:41:58;13.10;99.90
44170;DHT22;29836;52.286;9.576;2023-05-07T13:44:24;13.20;99.90
44170;DHT22;29836;52.286;9.576;2023-05-07T13:46:49;13.20;99.90
44170;DHT22;29836;52.286;9.576;2023-05-07T13:49:15;13.30;99.90
44170;DHT22;29836;52.286;9.576;2023-05-07T13:51:41;13.30;99.90
44170;DHT22;29836;52.286;9.576;2023-05-07T13:54:06;13.60;99.90
44170;DHT22;29836;52.286;9.576;2023-05-07T13:56:31;13.90;99.90
44170;DHT22;29836;52.286;9.576;2023-05-07T13:58:58;14.10;99.90
44170;DHT22;29836;52.286;9.576;2023-05-07T14:01:23;14.10;99.90
44170;DHT22;29836;52.286;9.576;2023-05-07T14:03:49;14.30;99.90
44170;DHT22;29836;52.286;9.576;2023-05-07T14:06:14;14.30;99.90
44170;DHT22;29836;52.286;9.576;2023-05-07T14:08:40;14.20;99.90
44170;DHT22;29836;52.286;9.576;2023-05-07T14:11:05;14.00;99.90
44170;DHT22;29836;52.286;9.576;2023-05-07T14:13:31;14.00;99.90
44170;DHT22;29836;52.286;9.576;2023-05-07T14:15:57;14.00;99.90
44170;DHT22;29836;52.286;9.576;2023-05-07T14:18:23;14.00;99.90
44170;DHT22;29836;52.286;9.576;2023-05-07T14:20:48;14.00;99.90
44170;DHT22;29836;52.286;9.576;2023-05-07T14:23:14;14.00;99.90
44170;DHT22;29836;52.286;9.576;2023-05-07T14:25:40;14.00;99.90
44170;DHT22;29836;52.286;9.576;2023-05-07T14:28:06;13.90;99.90
44170;DHT22;29836;52.286;9.576;2023-05-07T14:30:32;13.80;99.90
44170;DHT22;29836;52.286;9.576;2023-05-07T14:32:57;13.70;99.90
44170;DHT22;29836;52.286;9.576;2023-05-07T14:35:23;13.70;99.90
44170;DHT22;29836;52.286;9.576;2023-05-07T14:37:48;13.70;99.90
44170;DHT22;29836;52.286;9.576;2023-05-07T14:40:13;13.60;99.90
44170;DHT22;29836;52.286;9.576;2023-05-07T14:42:40;13.40;99.90
44170;DHT22;29836;52.286;9.576;2023-05-07T14:45:06;13.30;99.90
44170;DHT22;29836;52.286;9.576;2023-05-07T14:47:31;13.40;99.90
44170;DHT22;29836;52.286;9.576;2023-05-07T14:49:57;13.40;99.90
44170;DHT22;29836;52.286;9.576;2023-05-07T14:52:23;13.40;99.90
44170;DHT22;29836;52.286;9.576;2023-05-07T14:54:49;13.50;99.90
44170;DHT22;29836;52.286;9.576;2023-05-07T14:57:14;13.60;99.90
44170;DHT22;29836;52.286;9.576;2023-05-07T14:59:41;13.70;99.90
44170;DHT22;29836;52.286;9.576;2023-05-07T15:02:08;13.90;99.90
44170;DHT22;29836;52.286;9.576;2023-05-07T15:04:34;13.90;99.90
44170;DHT22;29836;52.286;9.576;2023-05-07T15:07:00;13.90;99.90
44170;DHT22;29836;52.286;9.576;2023-05-07T15:09:25;13.90;99.90
44170;DHT22;29836;52.286;9.576;2023-05-07T15:11:51;13.80;99.90
44170;DHT22;29836;52.286;9.576;2023-05-07T15:14:17;13.70;99.90
44170;DHT22;29836;52.286;9.576;2023-05-07T15:16:42;13.60;99.90
44170;DHT22;29836;52.286;9.576;2023-05-07T15:19:08;13.50;99.90
44170;DHT22;29836;52.286;9.576;2023-05-07T15:21:33;13.50;99.90
44170;DHT22;29836;52.286;9.576;2023-05-07T15:24:00;13.60;99.90
44170;DHT22;29836;52.286;9.576;2023-05-07T15:26:26;13.50;99.90
44170;DHT22;29836;52.286;9.576;2023-05-07T15:28:51;13.50;99.90
44170;DHT22;29836;52.286;9.576;2023-05-07T15:31:17;13.60;99.90
44170;DHT22;29836;52.286;9.576;2023-05-07T15:33:43;13.70;99.90
44170;DHT22;29836;52.286;9.576;2023-05-07T15:36:10;13.50;99.90
44170;DHT22;29836;52.286;9.576;2023-05-07T15:38:36;13.50;99.90
44170;DHT22;29836;52.286;9.576;2023-05-07T15:41:01;13.50;99.90
44170;DHT22;29836;52.286;9.576;2023-05-07T15:43:27;13.60;99.90
44170;DHT22;29836;52.286;9.576;2023-05-07T15:45:52;13.50;99.90
44170;DHT22;29836;52.286;9.576;2023-05-07T15:48:18;13.40;99.90
44170;DHT22;29836;52.286;9.576;2023-05-07T15:50:45;13.30;99.90
44170;DHT22;29836;52.286;9.576;2023-05-07T15:53:11;13.30;99.90
44170;DHT22;29836;52.286;9.576;2023-05-07T15:55:39;13.30;99.90